Terminal Aerodrome Forecast
Issued by NWS San Angelo, TX

Home | Current Version | Previous Version | Text Only | Print | Product List | Glossary On
Versions: 1 2 3 4 5 6 7 8 9 10 11 12 13 14 15 16 17 18 19 20 21 22 23
112
FTUS44 KSJT 041137
TAFSJT
TAF
KSJT 041137Z 0412/0512 35010KT 6SM BR OVC006
     FM041800 01010KT P6SM OVC012
     FM050000 01009KT 5SM -SHRA BR OVC012=

USA.gov is the U.S. government's official web portal to all federal, state and local government web resources and services.